Time;durP1;ratioP1;P1;durP2;ratioP2;P2;SDS_P1;SDS_P2;PMS_P1;PMS_P2;Temp;Humidity;BMP_temperature;BMP_pressure;BME280_temperature;BME280_humidity;BME280_pressure;Samples;Min_cycle;Max_cycle;Signal;HPM_P1;HPM_P2
2021/12/20 00:01:59;;;;;;;0.60;0.60;;;;;;;9.27;18.98;92597.19;4909519;29;20114;-89
2021/12/20 00:04:56;;;;;;;;;;;;;;;;;;;;;
2021/12/20 00:07:49;;;;;;;0.70;0.50;;;;;;;9.13;19.28;92578.00;4951859;29;19965;-90
2021/12/20 00:11:06;;;;;;;0.40;0.40;;;;;;;9.31;18.95;92620.94;4941218;28;20098;-90
2021/12/20 00:14:02;;;;;;;;;;;;;;;;;;;;;
2021/12/20 00:16:36;;;;;;;0.50;0.45;;;;;;;9.29;19.36;92594.31;4973588;28;20472;-89
2021/12/20 00:19:40;;;;;;;1.05;0.50;;;;;;;9.09;19.39;92576.97;4933354;28;20066;-90
2021/12/20 00:22:53;;;;;;;1.77;0.50;;;;;;;9.07;19.45;92571.25;4957966;28;20047;-90
2021/12/20 00:25:56;;;;;;;;;;;;;;;;;;;;;
2021/12/20 00:28:59;;;;;;;;;;;;;;;;;;;;;
2021/12/20 00:31:50;;;;;;;0.63;0.50;;;;;;;8.90;20.47;92559.38;4958188;28;20073;-90
2021/12/20 00:34:43;;;;;;;0.63;0.63;;;;;;;8.78;21.13;92572.00;4959209;28;20121;-89
2021/12/20 00:41:13;;;;;;;;;;;;;;;;;;;;;
2021/12/20 00:44:05;;;;;;;0.47;0.47;;;;;;;8.11;22.76;92561.16;4965675;28;20039;-89
2021/12/20 00:47:08;;;;;;;0.38;0.38;;;;;;;8.25;22.06;92582.22;4944859;28;20102;-91
2021/12/20 00:50:20;;;;;;;0.40;0.40;;;;;;;8.25;21.14;92577.00;4949894;28;20477;-89
2021/12/20 00:53:32;;;;;;;0.65;0.40;;;;;;;8.19;20.89;92550.16;4974219;28;20038;-90
2021/12/20 00:56:11;;;;;;;0.30;0.30;;;;;;;8.40;20.17;92550.03;4952991;28;20061;-90
2021/12/20 00:59:07;;;;;;;;;;;;;;;;;;;;;
2021/12/20 01:02:16;;;;;;;0.50;0.50;;;;;;;8.48;20.35;92532.00;4956227;28;20484;-90
2021/12/20 01:05:17;;;;;;;;;;;;;;;;;;;;;
2021/12/20 01:08:33;;;;;;;;;;;;;;;;;;;;;
2021/12/20 01:11:20;;;;;;;;;;;;;;;;;;;;;
2021/12/20 01:14:27;;;;;;;0.40;0.40;;;;;;;8.92;19.98;92566.94;4962604;28;20114;-90
2021/12/20 01:17:20;;;;;;;0.30;0.30;;;;;;;8.62;19.95;92526.19;4968334;28;20062;-94
2021/12/20 01:20:46;;;;;;;;;;;;;;;;;;;;;
2021/12/20 01:23:25;;;;;;;0.35;0.35;;;;;;;8.80;19.85;92507.25;4974144;28;20031;-89
2021/12/20 01:29:57;;;;;;;0.50;0.50;;;;;;;8.65;20.15;92510.00;4964511;28;20049;-90
2021/12/20 01:32:44;;;;;;;;;;;;;;;;;;;;;
2021/12/20 01:35:59;;;;;;;;;;;;;;;;;;;;;
2021/12/20 01:41:54;;;;;;;;;;;;;;;;;;;;;
2021/12/20 01:45:20;;;;;;;0.47;0.47;;;;;;;8.30;20.67;92514.38;4957011;28;20101;-89
2021/12/20 01:48:16;;;;;;;0.30;0.30;;;;;;;8.27;19.66;92507.09;4971316;28;20035;-89
2021/12/20 01:54:01;;;;;;;0.47;0.47;;;;;;;8.60;19.36;92497.75;4978439;28;20034;-90
2021/12/20 01:56:58;;;;;;;0.50;0.50;;;;;;;8.99;19.47;92545.75;4960879;28;20105;-89
2021/12/20 02:00:05;;;;;;;;;;;;;;;;;;;;;
2021/12/20 02:03:14;;;;;;;;;;;;;;;;;;;;;
2021/12/20 02:07:00;;;;;;;;;;;;;;;;;;;;;
2021/12/20 02:09:30;;;;;;;;;;;;;;;;;;;;;
2021/12/20 02:13:13;;;;;;;0.32;0.32;;;;;;;8.45;20.09;92472.56;4979204;28;20126;-89
2021/12/20 02:15:59;;;;;;;;;;;;;;;;;;;;;
2021/12/20 02:19:04;;;;;;;;;;;;;;;;;;;;;
2021/12/20 02:22:29;;;;;;;0.30;0.30;;;;;;;8.25;21.18;92446.59;4994279;28;20054;-90
2021/12/20 02:25:15;;;;;;;0.52;0.50;;;;;;;8.16;21.47;92437.81;4955979;28;20041;-89
2021/12/20 02:27:55;;;;;;;0.60;0.50;;;;;;;8.70;19.93;92507.34;4966075;28;20038;-92
2021/12/20 02:36:53;;;;;;;0.30;0.30;;;;;;;8.71;19.69;92482.78;4936004;28;20090;-90
2021/12/20 02:37:28;;;;;;;0.40;0.40;;;;;;;8.57;19.73;92445.34;4995781;28;20126;-90
2021/12/20 02:40:12;;;;;;;0.40;0.40;;;;;;;8.82;19.95;92479.03;4976741;28;20047;-89
2021/12/20 02:43:11;;;;;;;0.32;0.32;;;;;;;8.48;20.94;92442.53;4969785;28;20558;-90
2021/12/20 02:49:23;;;;;;;;;;;;;;;8.87;19.77;92481.63;4993877;28;20057;-90
2021/12/20 02:52:08;;;;;;;;;;;;;;;;;;;;;
2021/12/20 02:55:10;;;;;;;0.40;0.40;;;;;;;8.49;19.98;92423.25;4975598;28;20089;-89
2021/12/20 02:58:37;;;;;;;;;;;;;;;;;;;;;
2021/12/20 03:01:26;;;;;;;0.57;0.47;;;;;;;8.64;19.71;92414.47;4983191;28;20073;-89
2021/12/20 03:04:22;;;;;;;0.30;0.30;;;;;;;8.98;19.65;92471.06;4966445;28;20081;-89
2021/12/20 03:07:37;;;;;;;0.50;0.50;;;;;;;8.64;19.67;92422.31;4945179;28;20043;-89
2021/12/20 03:14:08;;;;;;;0.52;0.30;;;;;;;8.71;19.33;92420.16;4958347;28;20141;-90
2021/12/20 03:17:33;;;;;;;0.45;0.40;;;;;;;8.85;19.04;92412.44;4974657;28;20575;-90
2021/12/20 03:20:10;;;;;;;1.65;0.40;;;;;;;9.00;19.24;92422.72;4960680;28;20047;-90
2021/12/20 03:23:09;;;;;;;0.75;0.50;;;;;;;9.08;18.85;92421.38;4977446;28;20034;-89
2021/12/20 03:26:15;;;;;;;;;;;;;;;;;;;;;
2021/12/20 03:29:07;;;;;;;0.32;0.32;;;;;;;8.79;19.58;92416.94;4973534;28;20054;-89
2021/12/20 03:32:23;;;;;;;;;;;;;;;;;;;;;
2021/12/20 03:34:50;;;;;;;0.40;0.40;;;;;;;8.64;19.56;92398.81;4975387;28;20039;-89
2021/12/20 03:37:18;;;;;;;0.40;0.40;;;;;;;8.69;18.76;92401.38;4961614;28;20022;-89
2021/12/20 03:40:24;;;;;;;;;;;;;;;;;;;;;
2021/12/20 03:43:10;;;;;;;0.43;0.30;;;;;;;8.75;19.41;92385.38;4994218;28;20125;-89
2021/12/20 03:46:27;;;;;;;0.43;0.43;;;;;;;9.09;18.91;92428.13;4960505;28;20050;-89
2021/12/20 03:49:00;;;;;;;0.35;0.35;;;;;;;9.17;19.17;92443.97;4961749;28;20121;-89
2021/12/20 03:51:49;;;;;;;0.40;0.40;;;;;;;9.16;19.16;92444.22;4947893;28;20044;-90
2021/12/20 03:54:30;;;;;;;0.88;0.40;;;;;;;9.05;18.86;92421.91;4976109;28;20041;-90
2021/12/20 03:57:42;;;;;;;;;;;;;;;;;;;;;
2021/12/20 04:00:11;;;;;;;0.30;0.30;;;;;;;9.12;18.94;92407.47;4944933;28;20096;-89
2021/12/20 04:03:07;;;;;;;0.30;0.30;;;;;;;8.84;18.90;92372.50;4975539;28;20107;-91
2021/12/20 04:06:02;;;;;;;0.35;0.35;;;;;;;8.86;19.21;92375.63;4973880;28;20034;-90
2021/12/20 04:08:48;;;;;;;;;;;;;;;;;;;;;
2021/12/20 04:11:34;;;;;;;;;;;;;;;;;;;;;
2021/12/20 04:17:57;;;;;;;;;;;;;;;;;;;;;
2021/12/20 04:20:38;;;;;;;0.52;0.50;;;;;;;8.94;18.96;92361.19;4971693;28;20035;-91
2021/12/20 04:23:37;;;;;;;0.43;0.43;;;;;;;8.90;18.68;92350.53;4969417;28;20072;-89
2021/12/20 04:26:53;;;;;;;;;;;;;;;;;;;;;
2021/12/20 04:29:30;;;;;;;0.40;0.40;;;;;;;8.87;18.95;92351.09;4977849;28;20126;-89
2021/12/20 04:32:40;;;;;;;0.32;0.30;;;;;;;8.85;18.77;92358.44;4970463;28;20507;-89
2021/12/20 04:35:23;;;;;;;0.30;0.30;;;;;;;9.35;17.91;92392.84;4966490;28;20507;-90
2021/12/20 04:38:09;;;;;;;0.40;0.40;;;;;;;9.07;18.79;92362.34;4971548;28;20042;-89
2021/12/20 04:40:57;;;;;;;0.30;0.30;;;;;;;9.22;18.63;92385.66;4962945;28;20664;-89
2021/12/20 04:44:16;;;;;;;0.40;0.40;;;;;;;8.96;18.53;92349.44;4962090;28;20050;-89
2021/12/20 04:47:41;;;;;;;;;;;;;;;;;;;;;
2021/12/20 04:51:03;;;;;;;1.35;0.50;;;;;;;8.80;19.62;92340.19;4983652;28;20093;-91
2021/12/20 04:54:18;;;;;;;0.43;0.43;;;;;;;8.67;20.11;92349.47;4991993;28;20046;-92
2021/12/20 04:59:59;;;;;;;;;;;;;;;;;;;;;
2021/12/20 05:03:03;;;;;;;0.63;0.40;;;;;;;8.71;21.14;92394.06;4983230;28;20034;-89
2021/12/20 05:06:14;;;;;;;0.30;0.30;;;;;;;8.26;19.64;92347.25;4986284;28;20065;-89
2021/12/20 05:09:07;;;;;;;0.38;0.38;;;;;;;8.37;19.37;92354.97;4989715;28;20050;-91
2021/12/20 05:12:32;;;;;;;0.50;0.47;;;;;;;8.59;19.08;92357.91;4977454;28;20054;-89
2021/12/20 05:15:13;;;;;;;0.30;0.30;;;;;;;8.43;19.70;92325.97;4979216;28;20495;-91
2021/12/20 05:18:07;;;;;;;;;;;;;;;;;;;;;
2021/12/20 05:21:05;;;;;;;0.40;0.40;;;;;;;8.44;20.03;92331.97;4982385;28;20034;-90
2021/12/20 05:24:16;;;;;;;;;;;;;;;;;;;;;
2021/12/20 05:29:59;;;;;;;0.40;0.40;;;;;;;8.74;19.92;92396.13;4986351;28;20088;-90
2021/12/20 05:32:58;;;;;;;;;;;;;;;;;;;;;
2021/12/20 05:39:24;;;;;;;0.30;0.30;;;;;;;8.53;19.03;92336.31;4980674;28;20101;-89
2021/12/20 05:42:27;;;;;;;0.98;0.50;;;;;;;8.51;19.48;92328.00;4954868;28;20041;-92
2021/12/20 05:45:21;;;;;;;0.30;0.30;;;;;;;8.43;20.59;92331.19;4978355;28;20125;-89
2021/12/20 05:48:06;;;;;;;1.30;0.40;;;;;;;8.48;19.99;92344.19;4973863;28;20037;-89
2021/12/20 05:51:10;;;;;;;0.38;0.38;;;;;;;8.32;19.91;92334.91;4959750;28;20109;-90
2021/12/20 05:54:20;;;;;;;;;;;;;;;;;;;;;
2021/12/20 05:56:55;;;;;;;0.47;0.40;;;;;;;8.26;21.65;92346.44;4965919;28;20043;-87
2021/12/20 06:00:00;;;;;;;0.40;0.40;;;;;;;8.03;22.01;92330.47;4992130;28;20509;-90
2021/12/20 06:02:54;;;;;;;0.30;0.30;;;;;;;8.10;22.27;92367.41;4990412;28;20049;-87
2021/12/20 06:05:21;;;;;;;0.50;0.50;;;;;;;7.88;22.46;92359.25;4961354;28;20388;-87
2021/12/20 06:08:02;;;;;;;0.30;0.30;;;;;;;7.61;22.48;92337.06;4992313;28;20023;-88
2021/12/20 06:11:20;;;;;;;0.30;0.30;;;;;;;7.48;22.90;92345.47;4965206;28;20055;-87
2021/12/20 06:13:58;;;;;;;0.40;0.40;;;;;;;7.33;23.42;92332.53;4951955;28;20051;-88
2021/12/20 06:16:48;;;;;;;0.40;0.40;;;;;;;7.37;22.31;92341.38;4971105;28;20045;-87
2021/12/20 06:19:19;;;;;;;0.70;0.40;;;;;;;7.33;22.54;92329.94;4956275;28;20043;-87
2021/12/20 06:21:55;;;;;;;0.52;0.50;;;;;;;7.34;22.92;92331.47;4955964;28;20039;-88
2021/12/20 06:24:24;;;;;;;0.40;0.40;;;;;;;7.49;21.58;92349.63;4956724;28;20039;-87
2021/12/20 06:26:53;;;;;;;0.50;0.50;;;;;;;7.58;21.48;92352.44;4956852;28;20384;-85
2021/12/20 06:29:21;;;;;;;0.55;0.50;;;;;;;7.67;21.96;92372.44;4962843;28;20050;-86
2021/12/20 06:31:49;;;;;;;0.50;0.50;;;;;;;7.64;22.63;92369.59;4940564;28;20123;-86
2021/12/20 06:34:18;;;;;;;0.95;0.55;;;;;;;7.43;23.32;92348.88;4972733;28;20043;-86
2021/12/20 06:36:45;;;;;;;1.35;0.52;;;;;;;7.48;23.61;92368.91;4975050;28;20098;-86
2021/12/20 06:39:13;;;;;;;1.05;0.77;;;;;;;7.15;24.09;92337.31;4976550;28;20126;-85
2021/12/20 06:41:39;;;;;;;0.60;0.60;;;;;;;7.15;24.44;92345.13;4977549;28;20118;-86
2021/12/20 06:44:05;;;;;;;0.30;0.30;;;;;;;7.38;24.08;92381.97;4980439;28;20121;-86
2021/12/20 06:46:37;;;;;;;3.05;0.57;;;;;;;7.32;22.08;92376.03;4959043;28;20019;-85
2021/12/20 06:49:05;;;;;;;0.35;0.35;;;;;;;7.19;22.61;92340.16;4975758;28;20122;-86
2021/12/20 06:51:35;;;;;;;0.30;0.30;;;;;;;7.49;21.90;92367.84;4975721;28;20031;-85
2021/12/20 06:54:02;;;;;;;0.40;0.40;;;;;;;7.66;19.60;92341.44;4972710;28;20054;-86
2021/12/20 06:56:32;;;;;;;0.35;0.35;;;;;;;8.06;19.81;92373.47;4956723;28;20035;-87
2021/12/20 06:59:00;;;;;;;3.75;0.52;;;;;;;8.10;20.69;92370.03;4959695;28;20098;-87
2021/12/20 07:01:30;;;;;;;0.80;0.52;;;;;;;8.05;20.68;92345.84;4960415;28;20038;-85
2021/12/20 07:03:56;;;;;;;5.70;0.60;;;;;;;8.21;21.37;92388.22;4978541;28;20035;-87
2021/12/20 07:06:23;;;;;;;0.30;0.30;;;;;;;7.86;21.56;92349.13;4978249;28;20031;-87
2021/12/20 07:08:51;;;;;;;1.95;0.50;;;;;;;7.86;21.41;92348.34;4973654;28;20039;-87
2021/12/20 07:11:24;;;;;;;0.40;0.40;;;;;;;7.86;22.55;92356.16;4965568;28;20387;-87
2021/12/20 07:13:54;;;;;;;33.75;3.65;;;;;;;7.79;22.36;92358.28;4964818;28;20041;-87
2021/12/20 07:16:32;;;;;;;14.48;1.40;;;;;;;7.75;23.02;92363.28;4986049;28;20042;-88
2021/12/20 07:22:45;;;;;;;1.48;0.50;;;;;;;8.02;21.71;92383.66;4997942;28;20073;-87
2021/12/20 07:25:11;;;;;;;0.88;0.60;;;;;;;8.05;21.43;92372.69;4967515;28;20034;-87
2021/12/20 07:27:37;;;;;;;0.85;0.60;;;;;;;8.43;21.32;92388.56;4982838;28;20038;-86
2021/12/20 07:30:04;;;;;;;0.50;0.50;;;;;;;10.31;18.71;92377.91;4981067;28;20042;-89
2021/12/20 07:32:37;;;;;;;0.80;0.70;;;;;;;13.06;18.42;92375.78;4949715;28;20046;-89
2021/12/20 07:35:06;;;;;;;1.25;1.05;;;;;;;15.23;16.95;92357.66;4965097;28;20023;-90
2021/12/20 07:37:47;;;;;;;0.60;0.60;;;;;;;17.14;15.73;92368.63;4957165;28;20042;-89
2021/12/20 07:40:57;;;;;;;0.50;0.50;;;;;;;19.03;13.87;92369.88;4986498;28;20026;-91
2021/12/20 07:43:36;;;;;;;;;;;;;;;;;;;;;
2021/12/20 07:46:45;;;;;;;3.95;0.50;;;;;;;21.34;10.73;92327.13;5004495;28;20034;-90
2021/12/20 07:49:50;;;;;;;1.50;0.70;;;;;;;23.38;11.07;92354.78;4998614;28;20137;-91
2021/12/20 07:53:03;;;;;;;1.70;0.43;;;;;;;24.62;8.51;92340.66;4967325;28;20047;-91
2021/12/20 07:56:22;;;;;;;;;;;;;;;;;;;;;
2021/12/20 07:59:11;;;;;;;;;;;;;;;;;;;;;
2021/12/20 08:02:18;;;;;;;;;;;;;;;;;;;;;
2021/12/20 08:05:25;;;;;;;;;;;;;;;;;;;;;
2021/12/20 08:08:24;;;;;;;0.90;0.63;;;;;;;29.52;6.93;92356.41;5002831;28;20094;-91
2021/12/20 08:11:43;;;;;;;;;;;;;;;;;;;;;
2021/12/20 08:15:16;;;;;;;1.60;1.00;;;;;;;30.04;7.40;92332.50;4962833;28;20298;-91
2021/12/20 08:21:37;;;;;;;1.75;1.00;;;;;;;31.23;7.23;92320.16;4984273;28;20038;-91
2021/12/20 08:28:27;;;;;;;;;;;;;;;;;;;;;
2021/12/20 08:32:12;;;;;;;1.65;1.10;;;;;;;30.21;6.26;92308.28;4983389;28;20073;-91
2021/12/20 08:38:10;;;;;;;0.95;0.90;;;;;;;26.67;5.94;92336.03;4996135;28;20313;-90
2021/12/20 08:40:58;;;;;;;;;;;;;;;;;;;;;
2021/12/20 08:45:05;;;;;;;;;;;;;;;;;;;;;
2021/12/20 08:47:43;;;;;;;0.82;0.80;;;;;;;28.76;6.30;92365.50;4985611;28;20392;-91
2021/12/20 08:50:37;;;;;;;1.05;0.82;;;;;;;28.06;6.37;92359.72;4898988;29;20052;-90
2021/12/20 08:53:20;;;;;;;0.93;0.60;;;;;;;25.82;6.72;92329.72;4978529;28;20145;-90
2021/12/20 08:56:06;;;;;;;0.50;0.50;;;;;;;22.61;7.80;92307.13;4985650;28;20121;-89
2021/12/20 08:58:37;;;;;;;0.75;0.50;;;;;;;21.03;8.79;92372.59;4986010;28;20038;-89
2021/12/20 09:01:57;;;;;;;;;;;;;;;;;;;;;
2021/12/20 09:07:33;;;;;;;0.73;0.47;;;;;;;17.21;13.26;92380.19;4973504;28;20129;-88
2021/12/20 09:10:17;;;;;;;1.10;0.50;;;;;;;16.97;11.57;92321.97;5001090;28;20486;-89
2021/12/20 09:13:03;;;;;;;;;;;;;;;;;;;;;
2021/12/20 09:15:59;;;;;;;;;;;;;;;;;;;;;
2021/12/20 09:19:04;;;;;;;0.40;0.40;;;;;;;16.19;12.08;92360.50;5003831;28;20162;-91
2021/12/20 09:22:38;;;;;;;0.70;0.50;;;;;;;16.19;12.09;92386.91;4987228;28;20133;-90
2021/12/20 09:25:46;;;;;;;;;;;;;;;;;;;;;
2021/12/20 09:29:01;;;;;;;0.70;0.40;;;;;;;16.14;12.57;92379.94;4988616;28;20476;-91
2021/12/20 09:31:48;;;;;;;;;;;;;;;;;;;;;
2021/12/20 09:34:46;;;;;;;0.40;0.40;;;;;;;15.86;12.48;92363.84;4986620;28;20030;-91
2021/12/20 09:37:39;;;;;;;0.40;0.40;;;;;;;15.96;12.20;92345.00;4991674;28;20117;-91
2021/12/20 09:40:32;;;;;;;;;;;;;;;16.51;11.63;92392.53;4987353;28;20038;-90
2021/12/20 09:43:44;;;;;;;0.30;0.30;;;;;;;16.13;12.16;92377.63;4985530;28;20401;-91
2021/12/20 09:46:24;;;;;;;1.52;0.50;;;;;;;15.97;11.96;92380.84;4969248;28;20052;-91
2021/12/20 09:48:58;;;;;;;0.60;0.50;;;;;;;15.97;12.69;92341.25;4970602;28;20038;-91
2021/12/20 09:51:34;;;;;;;0.85;0.68;;;;;;;16.16;13.34;92363.78;4984830;28;20038;-91
2021/12/20 09:59:19;;;;;;;;;;;;;;;;;;;;;
2021/12/20 10:02:06;;;;;;;;;;;;;;;;;;;;;
2021/12/20 10:15:20;;;;;;;;;;;;;;;;;;;;;
2021/12/20 10:22:56;;;;;;;1.52;0.88;;;;;;;16.80;13.39;92373.94;4930150;28;20063;-90
2021/12/20 10:30:11;;;;;;;;;;;;;;;;;;;;;
2021/12/20 10:45:20;;;;;;;;;;;;;;;;;;;;;
2021/12/20 11:00:06;;;;;;;;;;;;;;;;;;;;;
2021/12/20 11:03:46;;;;;;;;;;;;;;;;;;;;;
2021/12/20 11:06:36;;;;;;;;;;;;;;;;;;;;;
2021/12/20 11:09:27;;;;;;;1.15;0.70;;;;;;;16.94;11.47;92323.41;4974218;28;20062;-91
2021/12/20 11:12:21;;;;;;;1.00;0.70;;;;;;;16.91;12.49;92336.50;4964847;28;20058;-92
2021/12/20 11:15:38;;;;;;;;;;;;;;;;;;;;;
2021/12/20 11:18:38;;;;;;;1.45;0.80;;;;;;;17.12;11.92;92326.63;4968664;28;20064;-91
2021/12/20 11:21:44;;;;;;;;;;;;;;;;;;;;;
2021/12/20 11:25:36;;;;;;;;;;;;;;;;;;;;;
2021/12/20 11:28:43;;;;;;;0.50;0.50;;;;;;;17.43;12.78;92362.34;4955559;28;20057;-92
2021/12/20 11:32:01;;;;;;;2.13;0.80;;;;;;;17.51;13.08;92350.84;4970983;28;20069;-90
2021/12/20 11:35:22;;;;;;;4.53;1.70;;;;;;;17.51;14.34;92332.34;4980824;28;20521;-91
2021/12/20 11:38:45;;;;;;;1.60;1.02;;;;;;;17.83;13.58;92369.59;4973983;28;20045;-90
2021/12/20 11:42:09;;;;;;;3.22;1.10;;;;;;;17.35;14.08;92355.28;4952998;28;20129;-90
2021/12/20 11:49:12;;;;;;;21.73;6.72;;;;;;;17.07;14.95;92337.41;4997789;28;20073;-90
2021/12/20 11:56:16;;;;;;;1.33;0.80;;;;;;;17.33;14.17;92365.41;4998315;28;20045;-91
2021/12/20 11:59:13;;;;;;;;;;;;;;;;;;;;;
2021/12/20 12:02:42;;;;;;;2.83;1.15;;;;;;;17.22;15.27;92299.72;4969938;28;20125;-92
2021/12/20 12:06:02;;;;;;;0.82;0.70;;;;;;;17.47;13.74;92350.75;4973349;28;20042;-93
2021/12/20 12:12:55;;;;;;;;;;;;;;;;;;;;;
2021/12/20 12:16:45;;;;;;;1.75;1.02;;;;;;;17.49;14.78;92339.84;4929781;28;20283;-96
2021/12/20 12:19:58;;;;;;;;;;;;;;;;;;;;;
2021/12/20 12:23:22;;;;;;;10.82;1.80;;;;;;;17.83;15.15;92295.47;4967018;28;20126;-91
2021/12/20 12:26:19;;;;;;;;;;;;;;;;;;;;;
2021/12/20 12:29:03;;;;;;;1.38;0.93;;;;;;;17.23;12.73;92314.50;4929931;29;20484;-91
2021/12/20 12:32:20;;;;;;;;;;;;;;;;;;;;;
2021/12/20 12:35:00;;;;;;;2.30;1.10;;;;;;;17.75;14.44;92338.72;4939234;29;20044;-91
2021/12/20 12:38:06;;;;;;;5.85;1.60;;;;;;;17.56;14.12;92305.66;4950634;28;20035;-91
2021/12/20 12:41:27;;;;;;;;;;;;;;;;;;;;;
2021/12/20 12:45:01;;;;;;;;;;;;;;;;;;;;;
2021/12/20 12:48:26;;;;;;;0.73;0.68;;;;;;;18.45;13.22;92352.44;4942427;29;20058;-91
2021/12/20 12:51:45;;;;;;;2.42;0.93;;;;;;;18.09;12.11;92337.44;4958125;29;20044;-91
2021/12/20 12:55:11;;;;;;;1.00;0.50;;;;;;;18.06;13.23;92323.00;4942253;29;20400;-91
2021/12/20 12:58:36;;;;;;;1.23;0.80;;;;;;;18.29;13.87;92346.31;4959114;29;20067;-92
2021/12/20 13:01:56;;;;;;;;;;;;;;;;;;;;;
2021/12/20 13:05:06;;;;;;;;;;;;;;;;;;;;;
2021/12/20 13:08:20;;;;;;;;;;;;;;;;;;;;;
2021/12/20 13:15:03;;;;;;;6.43;2.20;;;;;;;16.96;20.52;92313.28;4920347;29;20056;-91
2021/12/20 13:17:38;;;;;;;5.05;2.38;;;;;;;16.33;23.05;92302.88;4946477;29;20059;-91
2021/12/20 13:20:21;;;;;;;5.63;2.08;;;;;;;16.32;23.24;92340.94;4932871;29;20076;-91
2021/12/20 13:24:19;;;;;;;6.72;2.28;;;;;;;15.98;23.88;92312.97;4951342;29;20122;-91
2021/12/20 13:26:53;;;;;;;9.07;2.83;;;;;;;15.10;25.96;92362.06;4952623;29;20141;-90
2021/12/20 13:30:09;;;;;;;9.57;4.68;;;;;;;14.28;25.92;92327.84;4967593;28;20051;-90
2021/12/20 13:33:07;;;;;;;;;;;;;;;;;;;;;
2021/12/20 13:36:38;;;;;;;;;;;;;;;;;;;;;
2021/12/20 13:39:37;;;;;;;13.27;7.03;;;;;;;15.21;25.57;92360.59;4964569;29;20039;-91
2021/12/20 13:42:54;;;;;;;;;;;;;;;;;;;;;
2021/12/20 13:45:59;;;;;;;13.32;5.90;;;;;;;13.71;26.21;92349.81;4955414;28;20122;-91
2021/12/20 13:49:00;;;;;;;10.03;5.87;;;;;;;13.68;26.19;92392.53;4952803;29;20078;-89
2021/12/20 13:52:46;;;;;;;12.43;5.82;;;;;;;13.20;26.36;92369.66;4944336;29;20040;-89
2021/12/20 13:59:31;;;;;;;10.27;5.72;;;;;;;13.30;26.10;92335.22;4955249;28;20111;-90
2021/12/20 14:02:27;;;;;;;;;;;;;;;;;;;;;
2021/12/20 14:05:47;;;;;;;;;;;;;;;;;;;;;
2021/12/20 14:08:35;;;;;;;10.95;5.55;;;;;;;13.29;26.75;92373.13;4964685;29;20099;-91
2021/12/20 14:15:32;;;;;;;;;;;;;;;;;;;;;
2021/12/20 14:19:00;;;;;;;14.02;5.85;;;;;;;11.86;29.15;92396.47;4957642;28;20114;-91
2021/12/20 14:22:07;;;;;;;11.77;5.93;;;;;;;11.66;30.07;92407.41;4985470;28;20113;-91
2021/12/20 14:25:36;;;;;;;11.20;5.75;;;;;;;11.92;29.69;92378.03;4973240;28;20106;-90
2021/12/20 14:28:22;;;;;;;12.30;5.22;;;;;;;11.89;29.52;92421.38;4970136;28;20050;-90
2021/12/20 14:31:33;;;;;;;;;;;;;;;;;;;;;
2021/12/20 14:35:12;;;;;;;12.15;5.57;;;;;;;12.97;28.62;92424.13;4950871;28;20503;-92
2021/12/20 14:38:01;;;;;;;11.27;5.57;;;;;;;13.22;28.64;92385.91;4965705;28;20065;-91
2021/12/20 14:41:13;;;;;;;;;;;;;;;;;;;;;
2021/12/20 14:44:16;;;;;;;;;;;;;;;;;;;;;
2021/12/20 14:47:12;;;;;;;13.10;6.25;;;;;;;11.36;32.51;92441.00;4991461;28;20034;-90
2021/12/20 14:50:25;;;;;;;15.43;5.95;;;;;;;10.04;34.45;92410.72;4980101;28;20039;-90
2021/12/20 14:54:01;;;;;;;13.85;5.90;;;;;;;9.72;36.19;92388.69;4986533;28;20117;-90
2021/12/20 15:00:24;;;;;;;;;;;;;;;;;;;;;
2021/12/20 15:03:55;;;;;;;;;;;;;;;;;;;;;
2021/12/20 15:07:14;;;;;;;;;;;;;;;;;;;;;
2021/12/20 15:10:17;;;;;;;12.65;6.75;;;;;;;8.38;43.14;92417.28;4996729;28;20046;-90
2021/12/20 15:16:20;;;;;;;9.88;4.97;;;;;;;8.30;41.86;92425.69;4969899;28;20574;-90
2021/12/20 15:19:21;;;;;;;11.32;5.28;;;;;;;8.65;40.90;92489.88;4970069;28;20066;-90
2021/12/20 15:22:17;;;;;;;8.25;4.63;;;;;;;8.09;40.97;92431.06;4972862;28;20105;-93
2021/12/20 15:25:08;;;;;;;15.35;4.90;;;;;;;7.87;41.33;92438.50;4989300;28;20046;-90
2021/12/20 15:28:10;;;;;;;;;;;;;;;;;;;;;
2021/12/20 15:30:48;;;;;;;11.13;5.53;;;;;;;7.60;44.38;92434.47;4988769;28;20046;-90
2021/12/20 15:33:44;;;;;;;12.00;5.95;;;;;;;7.54;44.74;92443.34;4980963;28;20049;-90
2021/12/20 15:36:20;;;;;;;16.40;6.68;;;;;;;7.25;46.04;92432.78;4965483;28;20050;-90
2021/12/20 15:39:11;;;;;;;14.57;5.82;;;;;;;7.12;46.29;92441.97;4972625;28;20034;-90
2021/12/20 15:45:12;;;;;;;16.92;9.25;;;;;;;6.74;48.04;92451.94;4986855;28;20061;-86
2021/12/20 15:47:38;;;;;;;18.17;8.35;;;;;;;6.93;48.95;92511.25;4976852;28;20014;-89
2021/12/20 15:50:14;;;;;;;17.60;7.40;;;;;;;6.47;50.01;92470.44;4992350;28;20152;-91
2021/12/20 15:52:40;;;;;;;14.15;7.28;;;;;;;6.55;50.64;92492.53;4974654;28;20066;-88
2021/12/20 15:55:06;;;;;;;17.17;8.45;;;;;;;6.35;50.67;92494.09;4947712;28;20108;-85
2021/12/20 15:57:39;;;;;;;16.15;8.75;;;;;;;6.17;51.38;92484.19;4965607;28;20049;-85
2021/12/20 16:00:07;;;;;;;18.35;10.18;;;;;;;5.98;52.89;92481.31;4981691;28;20089;-85
2021/12/20 16:02:36;;;;;;;18.83;9.23;;;;;;;6.00;54.25;92485.22;4979310;28;20037;-85
2021/12/20 16:05:04;;;;;;;22.27;10.07;;;;;;;6.18;55.47;92558.56;4962920;28;20082;-86
2021/12/20 16:07:40;;;;;;;;;;;;;;;;;;;;;
2021/12/20 16:10:09;;;;;;;17.65;10.27;;;;;;;5.80;57.93;92574.25;4978608;28;20050;-86
2021/12/20 16:12:35;;;;;;;16.83;10.30;;;;;;;5.43;59.28;92569.16;4979896;28;20476;-85
2021/12/20 16:15:00;;;;;;;16.95;9.98;;;;;;;4.97;60.86;92535.13;4978595;28;20411;-84
2021/12/20 16:17:26;;;;;;;22.95;11.30;;;;;;;5.08;60.72;92575.69;4995805;28;20035;-85
2021/12/20 16:19:52;;;;;;;19.60;10.98;;;;;;;5.03;61.24;92586.03;4959244;28;20101;-85
2021/12/20 16:22:17;;;;;;;23.17;12.20;;;;;;;4.96;61.15;92577.69;4959032;28;20035;-83
2021/12/20 16:24:44;;;;;;;25.52;12.55;;;;;;;4.78;60.74;92566.66;4943249;28;20448;-86
2021/12/20 16:27:10;;;;;;;26.70;11.57;;;;;;;4.86;61.11;92593.94;4942873;28;20046;-85
2021/12/20 16:29:37;;;;;;;22.35;11.32;;;;;;;4.83;60.70;92598.88;4977793;28;20034;-87
2021/12/20 16:32:03;;;;;;;20.42;11.63;;;;;;;4.76;61.08;92610.22;4956702;28;20042;-86
2021/12/20 16:34:30;;;;;;;30.65;12.60;;;;;;;4.68;61.09;92609.88;4973496;28;20050;-86
2021/12/20 16:36:56;;;;;;;28.38;13.80;;;;;;;4.56;61.29;92616.00;4995720;28;20089;-86
2021/12/20 16:39:22;;;;;;;27.65;13.55;;;;;;;4.38;61.50;92603.41;4961268;28;20391;-86
2021/12/20 16:41:47;;;;;;;27.40;14.15;;;;;;;4.38;61.65;92624.91;4995088;28;20037;-86
2021/12/20 16:44:19;;;;;;;31.75;13.73;;;;;;;4.23;62.87;92616.97;4977278;28;20427;-86
2021/12/20 16:46:55;;;;;;;23.45;13.07;;;;;;;4.20;63.16;92621.88;4960949;28;20042;-87
2021/12/20 16:49:22;;;;;;;22.38;11.90;;;;;;;4.11;62.80;92618.94;4962524;28;20058;-86
2021/12/20 16:51:51;;;;;;;23.08;10.80;;;;;;;3.94;63.45;92599.06;4994333;28;20041;-87
2021/12/20 16:54:28;;;;;;;23.13;13.05;;;;;;;4.05;63.69;92632.84;4962073;28;20034;-86
2021/12/20 16:56:59;;;;;;;26.42;14.50;;;;;;;3.52;64.77;92576.31;4978881;28;20034;-87
2021/12/20 16:59:36;;;;;;;26.92;12.13;;;;;;;3.39;64.33;92571.47;4968346;28;20035;-86
2021/12/20 17:02:21;;;;;;;24.83;11.95;;;;;;;3.52;64.03;92607.38;4962866;28;20052;-87
2021/12/20 17:05:23;;;;;;;22.35;11.80;;;;;;;3.25;64.14;92596.13;4944726;28;20038;-87
2021/12/20 17:11:58;;;;;;;23.65;10.68;;;;;;;3.11;65.50;92591.28;4946171;29;20138;-87
2021/12/20 17:14:59;;;;;;;23.17;11.95;;;;;;;3.30;65.96;92633.19;4924518;29;20047;-87
2021/12/20 17:17:35;;;;;;;18.13;9.65;;;;;;;3.23;65.62;92637.75;4918727;29;20052;-86
2021/12/20 17:20:08;;;;;;;21.23;10.52;;;;;;;3.10;65.22;92631.09;4949631;28;20044;-88
2021/12/20 17:22:46;;;;;;;22.05;10.40;;;;;;;2.81;64.82;92599.38;4918832;29;20031;-86
2021/12/20 17:25:19;;;;;;;19.83;10.13;;;;;;;3.31;65.25;92677.97;4910511;29;20050;-86
2021/12/20 17:27:56;;;;;;;23.02;10.63;;;;;;;3.04;65.19;92650.16;4937978;29;20071;-85
2021/12/20 17:30:57;;;;;;;;;;;;;;;;;;;;;
2021/12/20 17:34:19;;;;;;;18.77;9.45;;;;;;;3.13;65.12;92681.59;4896089;29;20108;-86
2021/12/20 17:36:47;;;;;;;23.15;10.75;;;;;;;2.96;65.63;92660.13;4879772;29;20051;-89
2021/12/20 17:39:36;;;;;;;21.67;10.45;;;;;;;3.04;67.19;92688.16;4906244;28;20481;-86
2021/12/20 17:42:25;;;;;;;;;;;;;;;;;;;;;
2021/12/20 17:45:19;;;;;;;20.98;10.00;;;;;;;2.87;65.87;92670.06;4937781;29;20035;-85
2021/12/20 17:48:14;;;;;;;23.02;10.50;;;;;;;3.13;65.68;92718.59;4921774;29;20090;-87
2021/12/20 17:50:50;;;;;;;20.63;9.95;;;;;;;2.89;66.48;92704.22;4947437;29;20035;-87
2021/12/20 17:53:16;;;;;;;20.42;11.18;;;;;;;2.86;66.71;92702.91;4943092;29;20039;-86
2021/12/20 17:55:53;;;;;;;22.27;12.10;;;;;;;2.91;66.72;92725.47;4942829;29;20041;-86
2021/12/20 17:58:26;;;;;;;21.98;10.82;;;;;;;2.82;66.84;92706.19;4940521;29;20070;-86
2021/12/20 18:01:00;;;;;;;23.85;10.82;;;;;;;2.50;67.17;92678.25;4971105;28;20039;-86
2021/12/20 18:03:31;;;;;;;28.98;12.13;;;;;;;2.76;67.50;92713.06;4940123;29;20090;-86
2021/12/20 18:05:58;;;;;;;21.48;10.65;;;;;;;2.78;67.71;92730.94;4940280;29;20086;-86
2021/12/20 18:08:28;;;;;;;29.23;13.05;;;;;;;2.68;69.79;92719.38;4927659;29;20042;-86
2021/12/20 18:10:54;;;;;;;26.45;13.23;;;;;;;2.86;70.01;92748.63;4930808;29;20086;-86